sensor_id;sensor_type;location;lat;lon;timestamp;P1;durP1;ratioP1;P2;durP2;ratioP2
23680;SDS011;62915;50.832;4.462;2024-01-15T00:02:22;48.90;;;21.98;;
23680;SDS011;62915;50.832;4.462;2024-01-15T00:04:47;41.00;;;19.83;;
23680;SDS011;62915;50.832;4.462;2024-01-15T00:07:13;41.90;;;19.83;;
23680;SDS011;62915;50.832;4.462;2024-01-15T00:09:39;42.78;;;22.05;;
23680;SDS011;62915;50.832;4.462;2024-01-15T00:12:05;40.88;;;19.35;;
23680;SDS011;62915;50.832;4.462;2024-01-15T00:14:31;37.60;;;18.90;;
23680;SDS011;62915;50.832;4.462;2024-01-15T00:16:57;38.42;;;17.05;;
23680;SDS011;62915;50.832;4.462;2024-01-15T00:19:22;36.53;;;17.40;;
23680;SDS011;62915;50.832;4.462;2024-01-15T00:21:52;34.33;;;17.42;;
23680;SDS011;62915;50.832;4.462;2024-01-15T00:24:18;37.78;;;18.70;;
23680;SDS011;62915;50.832;4.462;2024-01-15T00:26:44;35.70;;;17.35;;
23680;SDS011;62915;50.832;4.462;2024-01-15T00:29:10;34.88;;;17.33;;
23680;SDS011;62915;50.832;4.462;2024-01-15T00:31:38;36.35;;;16.92;;
23680;SDS011;62915;50.832;4.462;2024-01-15T00:34:03;29.42;;;16.17;;
23680;SDS011;62915;50.832;4.462;2024-01-15T00:36:29;32.25;;;16.90;;
23680;SDS011;62915;50.832;4.462;2024-01-15T00:38:55;34.63;;;16.45;;
23680;SDS011;62915;50.832;4.462;2024-01-15T00:41:21;34.72;;;16.13;;
23680;SDS011;62915;50.832;4.462;2024-01-15T00:43:46;27.35;;;15.13;;
23680;SDS011;62915;50.832;4.462;2024-01-15T00:46:14;25.95;;;15.55;;
23680;SDS011;62915;50.832;4.462;2024-01-15T00:48:40;25.40;;;13.45;;
23680;SDS011;62915;50.832;4.462;2024-01-15T00:51:06;27.10;;;14.07;;
23680;SDS011;62915;50.832;4.462;2024-01-15T00:53:32;28.30;;;14.70;;
23680;SDS011;62915;50.832;4.462;2024-01-15T00:55:58;24.23;;;12.73;;
23680;SDS011;62915;50.832;4.462;2024-01-15T00:58:24;26.38;;;12.75;;
23680;SDS011;62915;50.832;4.462;2024-01-15T01:00:50;28.05;;;13.45;;
23680;SDS011;62915;50.832;4.462;2024-01-15T01:03:15;24.05;;;12.63;;
23680;SDS011;62915;50.832;4.462;2024-01-15T01:05:41;24.67;;;12.73;;
23680;SDS011;62915;50.832;4.462;2024-01-15T01:08:08;20.60;;;11.80;;
23680;SDS011;62915;50.832;4.462;2024-01-15T01:10:33;22.73;;;12.00;;
23680;SDS011;62915;50.832;4.462;2024-01-15T01:12:59;20.70;;;11.55;;
23680;SDS011;62915;50.832;4.462;2024-01-15T01:15:25;20.60;;;11.77;;
23680;SDS011;62915;50.832;4.462;2024-01-15T01:17:51;20.50;;;11.23;;
23680;SDS011;62915;50.832;4.462;2024-01-15T01:20:17;22.77;;;10.88;;
23680;SDS011;62915;50.832;4.462;2024-01-15T01:22:42;21.55;;;10.77;;
23680;SDS011;62915;50.832;4.462;2024-01-15T01:25:08;18.10;;;9.57;;
23680;SDS011;62915;50.832;4.462;2024-01-15T01:27:44;20.95;;;11.13;;
23680;SDS011;62915;50.832;4.462;2024-01-15T01:30:12;18.05;;;10.35;;
23680;SDS011;62915;50.832;4.462;2024-01-15T01:32:38;18.08;;;10.57;;
23680;SDS011;62915;50.832;4.462;2024-01-15T01:35:03;16.77;;;10.10;;
23680;SDS011;62915;50.832;4.462;2024-01-15T01:37:29;18.40;;;9.75;;
23680;SDS011;62915;50.832;4.462;2024-01-15T01:39:55;18.88;;;11.55;;
23680;SDS011;62915;50.832;4.462;2024-01-15T01:42:21;19.75;;;10.52;;
23680;SDS011;62915;50.832;4.462;2024-01-15T01:44:47;19.52;;;10.65;;
23680;SDS011;62915;50.832;4.462;2024-01-15T01:47:14;20.10;;;10.77;;
23680;SDS011;62915;50.832;4.462;2024-01-15T01:49:43;20.88;;;11.07;;
23680;SDS011;62915;50.832;4.462;2024-01-15T01:52:12;16.75;;;10.68;;
23680;SDS011;62915;50.832;4.462;2024-01-15T01:54:39;17.55;;;10.32;;
23680;SDS011;62915;50.832;4.462;2024-01-15T01:57:05;14.90;;;10.18;;
23680;SDS011;62915;50.832;4.462;2024-01-15T01:59:34;16.83;;;10.23;;
23680;SDS011;62915;50.832;4.462;2024-01-15T02:02:05;18.02;;;10.10;;
23680;SDS011;62915;50.832;4.462;2024-01-15T02:04:31;24.55;;;10.77;;
23680;SDS011;62915;50.832;4.462;2024-01-15T02:06:58;19.35;;;11.00;;
23680;SDS011;62915;50.832;4.462;2024-01-15T02:09:26;16.85;;;10.10;;
23680;SDS011;62915;50.832;4.462;2024-01-15T02:11:52;15.68;;;10.30;;
23680;SDS011;62915;50.832;4.462;2024-01-15T02:14:18;14.35;;;9.60;;
23680;SDS011;62915;50.832;4.462;2024-01-15T02:16:44;18.75;;;10.38;;
23680;SDS011;62915;50.832;4.462;2024-01-15T02:19:16;18.45;;;9.25;;
23680;SDS011;62915;50.832;4.462;2024-01-15T02:21:46;19.60;;;10.50;;
23680;SDS011;62915;50.832;4.462;2024-01-15T02:24:15;15.82;;;9.77;;
23680;SDS011;62915;50.832;4.462;2024-01-15T02:26:43;14.52;;;8.98;;
23680;SDS011;62915;50.832;4.462;2024-01-15T02:29:12;15.82;;;9.45;;
23680;SDS011;62915;50.832;4.462;2024-01-15T02:31:40;16.20;;;9.18;;
23680;SDS011;62915;50.832;4.462;2024-01-15T02:34:06;17.33;;;8.48;;
23680;SDS011;62915;50.832;4.462;2024-01-15T02:36:32;14.15;;;8.90;;
23680;SDS011;62915;50.832;4.462;2024-01-15T02:38:58;13.48;;;8.20;;
23680;SDS011;62915;50.832;4.462;2024-01-15T02:41:24;11.25;;;7.85;;
23680;SDS011;62915;50.832;4.462;2024-01-15T02:43:49;12.98;;;7.47;;
23680;SDS011;62915;50.832;4.462;2024-01-15T02:46:15;15.52;;;8.65;;
23680;SDS011;62915;50.832;4.462;2024-01-15T02:48:41;14.10;;;8.55;;
23680;SDS011;62915;50.832;4.462;2024-01-15T02:51:08;11.18;;;7.72;;
23680;SDS011;62915;50.832;4.462;2024-01-15T02:56:02;14.68;;;8.15;;
23680;SDS011;62915;50.832;4.462;2024-01-15T02:58:31;18.35;;;9.18;;
23680;SDS011;62915;50.832;4.462;2024-01-15T03:00:57;20.48;;;9.93;;
23680;SDS011;62915;50.832;4.462;2024-01-15T03:03:23;22.80;;;10.18;;
23680;SDS011;62915;50.832;4.462;2024-01-15T03:05:48;23.75;;;9.95;;
23680;SDS011;62915;50.832;4.462;2024-01-15T03:08:14;19.40;;;10.77;;
23680;SDS011;62915;50.832;4.462;2024-01-15T03:10:40;22.70;;;11.50;;
23680;SDS011;62915;50.832;4.462;2024-01-15T03:13:06;15.48;;;10.02;;
23680;SDS011;62915;50.832;4.462;2024-01-15T03:15:31;18.80;;;11.07;;
23680;SDS011;62915;50.832;4.462;2024-01-15T03:17:58;20.38;;;11.52;;
23680;SDS011;62915;50.832;4.462;2024-01-15T03:20:24;18.48;;;11.00;;
23680;SDS011;62915;50.832;4.462;2024-01-15T03:22:52;18.25;;;10.88;;
23680;SDS011;62915;50.832;4.462;2024-01-15T03:25:18;17.73;;;11.23;;
23680;SDS011;62915;50.832;4.462;2024-01-15T03:27:49;19.92;;;11.70;;
23680;SDS011;62915;50.832;4.462;2024-01-15T03:30:15;25.70;;;12.30;;
23680;SDS011;62915;50.832;4.462;2024-01-15T03:32:42;21.85;;;12.25;;
23680;SDS011;62915;50.832;4.462;2024-01-15T03:35:07;19.77;;;12.15;;
23680;SDS011;62915;50.832;4.462;2024-01-15T03:37:33;23.05;;;11.90;;
23680;SDS011;62915;50.832;4.462;2024-01-15T03:39:59;19.85;;;12.15;;
23680;SDS011;62915;50.832;4.462;2024-01-15T03:42:27;23.70;;;11.82;;
23680;SDS011;62915;50.832;4.462;2024-01-15T03:44:55;22.27;;;12.23;;
23680;SDS011;62915;50.832;4.462;2024-01-15T03:47:21;25.50;;;14.02;;
23680;SDS011;62915;50.832;4.462;2024-01-15T03:49:46;25.35;;;13.57;;
23680;SDS011;62915;50.832;4.462;2024-01-15T03:52:12;23.77;;;13.43;;
23680;SDS011;62915;50.832;4.462;2024-01-15T03:54:38;21.40;;;13.43;;
23680;SDS011;62915;50.832;4.462;2024-01-15T03:57:04;27.35;;;14.80;;
23680;SDS011;62915;50.832;4.462;2024-01-15T03:59:30;26.90;;;14.75;;
23680;SDS011;62915;50.832;4.462;2024-01-15T04:01:55;26.40;;;14.57;;
23680;SDS011;62915;50.832;4.462;2024-01-15T04:04:21;28.67;;;16.17;;
23680;SDS011;62915;50.832;4.462;2024-01-15T04:06:47;30.98;;;16.13;;
23680;SDS011;62915;50.832;4.462;2024-01-15T04:09:13;28.42;;;16.00;;
23680;SDS011;62915;50.832;4.462;2024-01-15T04:11:39;34.92;;;17.25;;
23680;SDS011;62915;50.832;4.462;2024-01-15T04:14:05;30.50;;;15.65;;
23680;SDS011;62915;50.832;4.462;2024-01-15T04:16:31;30.98;;;16.85;;
23680;SDS011;62915;50.832;4.462;2024-01-15T04:18:56;35.75;;;17.65;;
23680;SDS011;62915;50.832;4.462;2024-01-15T04:21:23;29.02;;;17.35;;
23680;SDS011;62915;50.832;4.462;2024-01-15T04:23:49;31.35;;;17.65;;
23680;SDS011;62915;50.832;4.462;2024-01-15T04:26:14;34.75;;;18.33;;
23680;SDS011;62915;50.832;4.462;2024-01-15T04:28:40;31.98;;;16.98;;
23680;SDS011;62915;50.832;4.462;2024-01-15T04:31:06;33.92;;;18.25;;
23680;SDS011;62915;50.832;4.462;2024-01-15T04:33:32;37.08;;;18.83;;
23680;SDS011;62915;50.832;4.462;2024-01-15T04:36:01;26.92;;;16.73;;
23680;SDS011;62915;50.832;4.462;2024-01-15T04:38:28;29.67;;;17.35;;
23680;SDS011;62915;50.832;4.462;2024-01-15T04:40:54;33.33;;;18.95;;
23680;SDS011;62915;50.832;4.462;2024-01-15T04:43:20;30.13;;;18.00;;
23680;SDS011;62915;50.832;4.462;2024-01-15T04:45:45;27.13;;;16.65;;
23680;SDS011;62915;50.832;4.462;2024-01-15T04:48:11;28.88;;;16.23;;
23680;SDS011;62915;50.832;4.462;2024-01-15T04:50:37;24.92;;;15.45;;
23680;SDS011;62915;50.832;4.462;2024-01-15T04:53:03;28.95;;;15.50;;
23680;SDS011;62915;50.832;4.462;2024-01-15T04:55:30;26.33;;;15.13;;
23680;SDS011;62915;50.832;4.462;2024-01-15T04:57:55;28.60;;;15.38;;
23680;SDS011;62915;50.832;4.462;2024-01-15T05:00:21;34.05;;;16.45;;
23680;SDS011;62915;50.832;4.462;2024-01-15T05:02:47;28.55;;;14.38;;
23680;SDS011;62915;50.832;4.462;2024-01-15T05:05:13;32.58;;;15.00;;
23680;SDS011;62915;50.832;4.462;2024-01-15T05:07:39;26.58;;;15.20;;
23680;SDS011;62915;50.832;4.462;2024-01-15T05:10:05;29.90;;;15.57;;
23680;SDS011;62915;50.832;4.462;2024-01-15T05:12:32;24.80;;;13.82;;
23680;SDS011;62915;50.832;4.462;2024-01-15T05:14:59;20.92;;;11.82;;
23680;SDS011;62915;50.832;4.462;2024-01-15T05:17:26;20.05;;;12.23;;
23680;SDS011;62915;50.832;4.462;2024-01-15T05:19:52;23.20;;;11.40;;
23680;SDS011;62915;50.832;4.462;2024-01-15T05:22:18;22.33;;;11.15;;
23680;SDS011;62915;50.832;4.462;2024-01-15T05:24:46;17.10;;;10.13;;
23680;SDS011;62915;50.832;4.462;2024-01-15T05:27:11;20.48;;;9.93;;
23680;SDS011;62915;50.832;4.462;2024-01-15T05:29:37;17.73;;;9.45;;
23680;SDS011;62915;50.832;4.462;2024-01-15T05:32:03;20.60;;;8.63;;
23680;SDS011;62915;50.832;4.462;2024-01-15T05:34:29;11.93;;;7.75;;
23680;SDS011;62915;50.832;4.462;2024-01-15T05:36:54;13.77;;;7.07;;
23680;SDS011;62915;50.832;4.462;2024-01-15T05:39:20;11.70;;;6.85;;
23680;SDS011;62915;50.832;4.462;2024-01-15T05:41:46;14.25;;;6.65;;
23680;SDS011;62915;50.832;4.462;2024-01-15T05:44:12;10.35;;;6.40;;
23680;SDS011;62915;50.832;4.462;2024-01-15T05:46:38;12.77;;;6.93;;
23680;SDS011;62915;50.832;4.462;2024-01-15T05:49:04;13.20;;;6.47;;
23680;SDS011;62915;50.832;4.462;2024-01-15T05:51:30;12.73;;;5.90;;
23680;SDS011;62915;50.832;4.462;2024-01-15T05:53:55;12.18;;;5.20;;
23680;SDS011;62915;50.832;4.462;2024-01-15T05:56:21;9.75;;;5.38;;
23680;SDS011;62915;50.832;4.462;2024-01-15T05:58:52;11.32;;;4.82;;
23680;SDS011;62915;50.832;4.462;2024-01-15T06:01:17;9.27;;;5.10;;
23680;SDS011;62915;50.832;4.462;2024-01-15T06:03:43;12.77;;;5.82;;
23680;SDS011;62915;50.832;4.462;2024-01-15T06:06:12;10.48;;;5.43;;
23680;SDS011;62915;50.832;4.462;2024-01-15T06:08:40;11.48;;;5.68;;
23680;SDS011;62915;50.832;4.462;2024-01-15T06:11:10;9.95;;;5.45;;
23680;SDS011;62915;50.832;4.462;2024-01-15T06:13:36;7.13;;;3.83;;
23680;SDS011;62915;50.832;4.462;2024-01-15T06:16:01;11.70;;;4.65;;
23680;SDS011;62915;50.832;4.462;2024-01-15T06:18:30;10.68;;;4.13;;
23680;SDS011;62915;50.832;4.462;2024-01-15T06:20:55;6.95;;;4.03;;
23680;SDS011;62915;50.832;4.462;2024-01-15T06:23:21;6.68;;;3.45;;
23680;SDS011;62915;50.832;4.462;2024-01-15T06:25:47;4.28;;;2.75;;
23680;SDS011;62915;50.832;4.462;2024-01-15T06:28:15;5.15;;;3.00;;
23680;SDS011;62915;50.832;4.462;2024-01-15T06:30:41;5.90;;;3.13;;
23680;SDS011;62915;50.832;4.462;2024-01-15T06:33:07;6.28;;;2.88;;
23680;SDS011;62915;50.832;4.462;2024-01-15T06:35:33;8.25;;;3.00;;
23680;SDS011;62915;50.832;4.462;2024-01-15T06:37:59;5.65;;;2.63;;
23680;SDS011;62915;50.832;4.462;2024-01-15T06:40:25;4.18;;;2.95;;
23680;SDS011;62915;50.832;4.462;2024-01-15T06:42:50;7.50;;;3.45;;
23680;SDS011;62915;50.832;4.462;2024-01-15T06:45:16;4.88;;;2.88;;
23680;SDS011;62915;50.832;4.462;2024-01-15T06:47:42;7.22;;;3.65;;
23680;SDS011;62915;50.832;4.462;2024-01-15T06:50:08;5.22;;;3.60;;
23680;SDS011;62915;50.832;4.462;2024-01-15T06:52:34;9.18;;;3.92;;
23680;SDS011;62915;50.832;4.462;2024-01-15T06:54:59;6.82;;;4.68;;
23680;SDS011;62915;50.832;4.462;2024-01-15T06:57:25;7.97;;;4.28;;
23680;SDS011;62915;50.832;4.462;2024-01-15T06:59:51;7.82;;;5.00;;
23680;SDS011;62915;50.832;4.462;2024-01-15T07:02:16;10.80;;;5.97;;
23680;SDS011;62915;50.832;4.462;2024-01-15T07:04:42;11.07;;;5.13;;
23680;SDS011;62915;50.832;4.462;2024-01-15T07:07:08;11.30;;;5.80;;
23680;SDS011;62915;50.832;4.462;2024-01-15T07:09:34;8.23;;;5.50;;
23680;SDS011;62915;50.832;4.462;2024-01-15T07:11:59;7.50;;;5.63;;
23680;SDS011;62915;50.832;4.462;2024-01-15T07:14:25;10.43;;;6.70;;
23680;SDS011;62915;50.832;4.462;2024-01-15T07:16:51;11.30;;;6.13;;
23680;SDS011;62915;50.832;4.462;2024-01-15T07:19:17;14.02;;;5.97;;
23680;SDS011;62915;50.832;4.462;2024-01-15T07:21:43;15.65;;;6.45;;
23680;SDS011;62915;50.832;4.462;2024-01-15T07:24:09;12.25;;;7.35;;
23680;SDS011;62915;50.832;4.462;2024-01-15T07:26:35;9.45;;;6.40;;
23680;SDS011;62915;50.832;4.462;2024-01-15T07:29:01;8.15;;;6.35;;
23680;SDS011;62915;50.832;4.462;2024-01-15T07:31:36;9.88;;;6.13;;
23680;SDS011;62915;50.832;4.462;2024-01-15T07:34:02;12.90;;;5.97;;
23680;SDS011;62915;50.832;4.462;2024-01-15T07:36:27;13.13;;;6.15;;
23680;SDS011;62915;50.832;4.462;2024-01-15T07:38:56;12.95;;;6.45;;
23680;SDS011;62915;50.832;4.462;2024-01-15T07:41:25;16.42;;;7.95;;
23680;SDS011;62915;50.832;4.462;2024-01-15T07:43:51;16.25;;;8.52;;
23680;SDS011;62915;50.832;4.462;2024-01-15T07:46:19;14.52;;;8.13;;
23680;SDS011;62915;50.832;4.462;2024-01-15T07:48:50;14.40;;;7.90;;
23680;SDS011;62915;50.832;4.462;2024-01-15T07:51:21;15.15;;;8.10;;
23680;SDS011;62915;50.832;4.462;2024-01-15T07:53:47;12.50;;;8.00;;
23680;SDS011;62915;50.832;4.462;2024-01-15T07:56:13;15.48;;;8.48;;
23680;SDS011;62915;50.832;4.462;2024-01-15T07:58:39;16.92;;;8.43;;
23680;SDS011;62915;50.832;4.462;2024-01-15T08:01:04;15.85;;;8.50;;
23680;SDS011;62915;50.832;4.462;2024-01-15T08:03:31;14.15;;;8.88;;
23680;SDS011;62915;50.832;4.462;2024-01-15T08:05:57;16.58;;;8.77;;
23680;SDS011;62915;50.832;4.462;2024-01-15T08:08:27;12.45;;;7.88;;
23680;SDS011;62915;50.832;4.462;2024-01-15T08:10:53;13.73;;;8.40;;
23680;SDS011;62915;50.832;4.462;2024-01-15T08:13:18;15.52;;;9.10;;
23680;SDS011;62915;50.832;4.462;2024-01-15T08:15:45;16.63;;;8.75;;
23680;SDS011;62915;50.832;4.462;2024-01-15T08:18:11;11.90;;;8.35;;
23680;SDS011;62915;50.832;4.462;2024-01-15T08:20:37;15.00;;;7.65;;
23680;SDS011;62915;50.832;4.462;2024-01-15T08:23:03;14.70;;;7.47;;
23680;SDS011;62915;50.832;4.462;2024-01-15T08:25:29;14.50;;;7.80;;
23680;SDS011;62915;50.832;4.462;2024-01-15T08:27:56;11.82;;;6.53;;
23680;SDS011;62915;50.832;4.462;2024-01-15T08:30:22;11.25;;;6.72;;
23680;SDS011;62915;50.832;4.462;2024-01-15T08:32:52;14.18;;;6.45;;
23680;SDS011;62915;50.832;4.462;2024-01-15T08:35:18;10.75;;;6.07;;
23680;SDS011;62915;50.832;4.462;2024-01-15T08:37:48;8.38;;;5.80;;
23680;SDS011;62915;50.832;4.462;2024-01-15T08:40:15;11.68;;;5.63;;
23680;SDS011;62915;50.832;4.462;2024-01-15T08:42:41;10.52;;;6.03;;
23680;SDS011;62915;50.832;4.462;2024-01-15T08:45:07;10.73;;;5.28;;
23680;SDS011;62915;50.832;4.462;2024-01-15T08:47:33;8.63;;;4.45;;
23680;SDS011;62915;50.832;4.462;2024-01-15T08:49:59;10.77;;;5.10;;
23680;SDS011;62915;50.832;4.462;2024-01-15T08:52:25;11.27;;;4.53;;
23680;SDS011;62915;50.832;4.462;2024-01-15T08:54:51;11.40;;;4.60;;
23680;SDS011;62915;50.832;4.462;2024-01-15T08:57:17;8.93;;;4.25;;
23680;SDS011;62915;50.832;4.462;2024-01-15T08:59:43;8.48;;;3.95;;
23680;SDS011;62915;50.832;4.462;2024-01-15T09:02:08;6.97;;;3.67;;
23680;SDS011;62915;50.832;4.462;2024-01-15T09:04:34;8.35;;;3.65;;
23680;SDS011;62915;50.832;4.462;2024-01-15T09:07:00;10.25;;;4.30;;
23680;SDS011;62915;50.832;4.462;2024-01-15T09:09:25;9.77;;;3.95;;
23680;SDS011;62915;50.832;4.462;2024-01-15T09:11:51;8.65;;;3.22;;
23680;SDS011;62915;50.832;4.462;2024-01-15T09:14:17;13.73;;;3.20;;
23680;SDS011;62915;50.832;4.462;2024-01-15T09:16:43;13.30;;;3.50;;
23680;SDS011;62915;50.832;4.462;2024-01-15T09:19:08;15.88;;;3.80;;
23680;SDS011;62915;50.832;4.462;2024-01-15T09:21:34;8.57;;;2.90;;
23680;SDS011;62915;50.832;4.462;2024-01-15T09:24:00;8.32;;;2.80;;
23680;SDS011;62915;50.832;4.462;2024-01-15T09:26:25;6.65;;;3.00;;
23680;SDS011;62915;50.832;4.462;2024-01-15T09:28:51;10.55;;;3.20;;
23680;SDS011;62915;50.832;4.462;2024-01-15T09:31:17;16.35;;;3.33;;
23680;SDS011;62915;50.832;4.462;2024-01-15T09:33:44;10.48;;;2.78;;
23680;SDS011;62915;50.832;4.462;2024-01-15T09:36:10;11.45;;;2.63;;
23680;SDS011;62915;50.832;4.462;2024-01-15T09:38:36;11.25;;;2.78;;
23680;SDS011;62915;50.832;4.462;2024-01-15T09:41:02;10.98;;;2.65;;
23680;SDS011;62915;50.832;4.462;2024-01-15T09:43:27;12.13;;;3.15;;
23680;SDS011;62915;50.832;4.462;2024-01-15T09:45:53;9.38;;;2.53;;
23680;SDS011;62915;50.832;4.462;2024-01-15T09:48:19;8.38;;;2.78;;
23680;SDS011;62915;50.832;4.462;2024-01-15T09:50:45;8.68;;;2.42;;
23680;SDS011;62915;50.832;4.462;2024-01-15T09:53:11;6.60;;;2.05;;
23680;SDS011;62915;50.832;4.462;2024-01-15T09:55:38;7.97;;;2.28;;
23680;SDS011;62915;50.832;4.462;2024-01-15T09:58:05;6.68;;;1.83;;
23680;SDS011;62915;50.832;4.462;2024-01-15T10:00:30;8.15;;;2.28;;
23680;SDS011;62915;50.832;4.462;2024-01-15T10:02:58;13.15;;;2.92;;
23680;SDS011;62915;50.832;4.462;2024-01-15T10:05:25;8.75;;;2.35;;
23680;SDS011;62915;50.832;4.462;2024-01-15T10:07:52;6.32;;;2.42;;
23680;SDS011;62915;50.832;4.462;2024-01-15T10:10:20;10.10;;;2.30;;
23680;SDS011;62915;50.832;4.462;2024-01-15T10:12:47;5.97;;;2.00;;
23680;SDS011;62915;50.832;4.462;2024-01-15T10:15:13;6.13;;;2.35;;
23680;SDS011;62915;50.832;4.462;2024-01-15T10:17:39;10.70;;;2.60;;
23680;SDS011;62915;50.832;4.462;2024-01-15T10:20:11;6.70;;;2.20;;
23680;SDS011;62915;50.832;4.462;2024-01-15T10:22:41;11.95;;;2.42;;
23680;SDS011;62915;50.832;4.462;2024-01-15T10:27:40;8.60;;;2.00;;
23680;SDS011;62915;50.832;4.462;2024-01-15T10:30:07;11.80;;;2.75;;
23680;SDS011;62915;50.832;4.462;2024-01-15T10:32:33;6.07;;;1.85;;
23680;SDS011;62915;50.832;4.462;2024-01-15T10:34:59;8.82;;;2.55;;
23680;SDS011;62915;50.832;4.462;2024-01-15T10:37:25;6.30;;;2.15;;
23680;SDS011;62915;50.832;4.462;2024-01-15T10:39:50;8.07;;;2.20;;
23680;SDS011;62915;50.832;4.462;2024-01-15T10:42:17;9.52;;;2.03;;
23680;SDS011;62915;50.832;4.462;2024-01-15T10:44:43;6.90;;;1.80;;
23680;SDS011;62915;50.832;4.462;2024-01-15T10:47:12;8.85;;;1.73;;
23680;SDS011;62915;50.832;4.462;2024-01-15T10:49:38;10.43;;;2.30;;
23680;SDS011;62915;50.832;4.462;2024-01-15T10:52:04;5.15;;;1.77;;
23680;SDS011;62915;50.832;4.462;2024-01-15T10:54:31;10.52;;;2.92;;
23680;SDS011;62915;50.832;4.462;2024-01-15T10:56:57;8.32;;;2.35;;
23680;SDS011;62915;50.832;4.462;2024-01-15T10:59:23;7.97;;;2.13;;
23680;SDS011;62915;50.832;4.462;2024-01-15T11:01:49;13.75;;;2.20;;
23680;SDS011;62915;50.832;4.462;2024-01-15T11:04:18;5.45;;;1.83;;
23680;SDS011;62915;50.832;4.462;2024-01-15T11:06:50;6.35;;;1.75;;
23680;SDS011;62915;50.832;4.462;2024-01-15T11:09:18;9.45;;;2.33;;
23680;SDS011;62915;50.832;4.462;2024-01-15T11:11:45;11.20;;;2.80;;
23680;SDS011;62915;50.832;4.462;2024-01-15T11:17:09;7.40;;;1.90;;
23680;SDS011;62915;50.832;4.462;2024-01-15T11:19:42;8.15;;;2.35;;
23680;SDS011;62915;50.832;4.462;2024-01-15T11:22:09;6.63;;;1.95;;
23680;SDS011;62915;50.832;4.462;2024-01-15T11:24:54;8.45;;;1.77;;
23680;SDS011;62915;50.832;4.462;2024-01-15T11:27:39;12.85;;;2.70;;
23680;SDS011;62915;50.832;4.462;2024-01-15T11:30:07;7.65;;;2.13;;
23680;SDS011;62915;50.832;4.462;2024-01-15T11:32:35;7.22;;;1.73;;
23680;SDS011;62915;50.832;4.462;2024-01-15T11:35:01;6.72;;;2.30;;
23680;SDS011;62915;50.832;4.462;2024-01-15T11:37:28;10.35;;;2.13;;
23680;SDS011;62915;50.832;4.462;2024-01-15T11:40:14;9.93;;;2.28;;
23680;SDS011;62915;50.832;4.462;2024-01-15T11:42:44;5.72;;;1.98;;
23680;SDS011;62915;50.832;4.462;2024-01-15T11:45:10;7.03;;;1.77;;
23680;SDS011;62915;50.832;4.462;2024-01-15T11:47:46;8.52;;;2.00;;
23680;SDS011;62915;50.832;4.462;2024-01-15T11:50:28;6.65;;;2.15;;
23680;SDS011;62915;50.832;4.462;2024-01-15T11:52:59;8.55;;;2.40;;
23680;SDS011;62915;50.832;4.462;2024-01-15T11:55:36;6.05;;;2.15;;
23680;SDS011;62915;50.832;4.462;2024-01-15T11:58:09;9.55;;;1.70;;
23680;SDS011;62915;50.832;4.462;2024-01-15T12:00:35;9.90;;;1.92;;
23680;SDS011;62915;50.832;4.462;2024-01-15T12:03:12;5.32;;;1.90;;
23680;SDS011;62915;50.832;4.462;2024-01-15T12:05:39;4.25;;;1.65;;
23680;SDS011;62915;50.832;4.462;2024-01-15T12:08:07;6.53;;;1.60;;
23680;SDS011;62915;50.832;4.462;2024-01-15T12:10:36;6.47;;;2.20;;
23680;SDS011;62915;50.832;4.462;2024-01-15T12:15:41;6.80;;;2.15;;
23680;SDS011;62915;50.832;4.462;2024-01-15T12:18:12;6.90;;;1.60;;
23680;SDS011;62915;50.832;4.462;2024-01-15T12:20:39;6.70;;;1.90;;
23680;SDS011;62915;50.832;4.462;2024-01-15T12:23:05;6.07;;;1.90;;
23680;SDS011;62915;50.832;4.462;2024-01-15T12:25:31;6.93;;;1.80;;
23680;SDS011;62915;50.832;4.462;2024-01-15T12:27:59;6.28;;;1.83;;
23680;SDS011;62915;50.832;4.462;2024-01-15T12:30:26;4.35;;;1.77;;
23680;SDS011;62915;50.832;4.462;2024-01-15T12:32:52;9.65;;;2.03;;
23680;SDS011;62915;50.832;4.462;2024-01-15T12:35:18;8.93;;;1.85;;
23680;SDS011;62915;50.832;4.462;2024-01-15T12:37:44;7.80;;;2.03;;
23680;SDS011;62915;50.832;4.462;2024-01-15T12:40:13;8.25;;;2.25;;
23680;SDS011;62915;50.832;4.462;2024-01-15T12:42:43;12.20;;;2.17;;
23680;SDS011;62915;50.832;4.462;2024-01-15T12:45:09;6.45;;;1.70;;
23680;SDS011;62915;50.832;4.462;2024-01-15T12:47:36;8.52;;;2.13;;
23680;SDS011;62915;50.832;4.462;2024-01-15T12:50:02;5.72;;;2.10;;
23680;SDS011;62915;50.832;4.462;2024-01-15T12:52:32;8.27;;;2.05;;
23680;SDS011;62915;50.832;4.462;2024-01-15T12:54:57;7.03;;;1.95;;
23680;SDS011;62915;50.832;4.462;2024-01-15T12:57:23;6.05;;;1.90;;
23680;SDS011;62915;50.832;4.462;2024-01-15T12:59:49;7.93;;;2.08;;
23680;SDS011;62915;50.832;4.462;2024-01-15T13:02:15;5.63;;;1.48;;
23680;SDS011;62915;50.832;4.462;2024-01-15T13:04:44;6.15;;;1.95;;
23680;SDS011;62915;50.832;4.462;2024-01-15T13:07:10;9.00;;;2.22;;
23680;SDS011;62915;50.832;4.462;2024-01-15T13:09:35;8.57;;;2.28;;
23680;SDS011;62915;50.832;4.462;2024-01-15T13:12:01;10.77;;;2.25;;
23680;SDS011;62915;50.832;4.462;2024-01-15T13:14:28;10.85;;;2.33;;
23680;SDS011;62915;50.832;4.462;2024-01-15T13:16:54;8.38;;;2.03;;
23680;SDS011;62915;50.832;4.462;2024-01-15T13:19:20;7.68;;;2.10;;
23680;SDS011;62915;50.832;4.462;2024-01-15T13:21:47;9.35;;;2.10;;
23680;SDS011;62915;50.832;4.462;2024-01-15T13:24:13;6.65;;;2.20;;
23680;SDS011;62915;50.832;4.462;2024-01-15T13:26:39;5.35;;;1.90;;
23680;SDS011;62915;50.832;4.462;2024-01-15T13:29:06;7.82;;;1.70;;
23680;SDS011;62915;50.832;4.462;2024-01-15T13:31:32;7.60;;;1.92;;
23680;SDS011;62915;50.832;4.462;2024-01-15T13:33:58;9.52;;;1.85;;
23680;SDS011;62915;50.832;4.462;2024-01-15T13:36:25;8.35;;;2.15;;
23680;SDS011;62915;50.832;4.462;2024-01-15T13:38:51;9.90;;;1.73;;
23680;SDS011;62915;50.832;4.462;2024-01-15T13:41:18;10.52;;;2.50;;
23680;SDS011;62915;50.832;4.462;2024-01-15T13:43:49;13.13;;;2.70;;
23680;SDS011;62915;50.832;4.462;2024-01-15T13:46:15;10.18;;;2.33;;
23680;SDS011;62915;50.832;4.462;2024-01-15T13:48:42;5.65;;;1.73;;
23680;SDS011;62915;50.832;4.462;2024-01-15T13:51:08;9.98;;;2.10;;
23680;SDS011;62915;50.832;4.462;2024-01-15T13:53:36;6.95;;;2.08;;
23680;SDS011;62915;50.832;4.462;2024-01-15T13:56:03;5.07;;;1.80;;
23680;SDS011;62915;50.832;4.462;2024-01-15T13:58:30;11.23;;;1.92;;
23680;SDS011;62915;50.832;4.462;2024-01-15T14:00:56;9.32;;;2.10;;
23680;SDS011;62915;50.832;4.462;2024-01-15T14:03:22;7.65;;;2.00;;
23680;SDS011;62915;50.832;4.462;2024-01-15T14:05:48;1.10;;;0.95;;
23680;SDS011;62915;50.832;4.462;2024-01-15T14:08:16;3.00;;;1.00;;
23680;SDS011;62915;50.832;4.462;2024-01-15T14:10:42;1.13;;;0.85;;
23680;SDS011;62915;50.832;4.462;2024-01-15T14:13:07;1.35;;;1.00;;
23680;SDS011;62915;50.832;4.462;2024-01-15T14:15:33;2.17;;;1.30;;
23680;SDS011;62915;50.832;4.462;2024-01-15T14:17:59;2.00;;;1.42;;
23680;SDS011;62915;50.832;4.462;2024-01-15T14:20:26;2.80;;;1.63;;
23680;SDS011;62915;50.832;4.462;2024-01-15T14:22:52;4.90;;;1.85;;
23680;SDS011;62915;50.832;4.462;2024-01-15T14:25:19;7.00;;;2.58;;
23680;SDS011;62915;50.832;4.462;2024-01-15T14:27:45;6.38;;;2.67;;
23680;SDS011;62915;50.832;4.462;2024-01-15T14:30:11;6.85;;;2.33;;
23680;SDS011;62915;50.832;4.462;2024-01-15T14:32:38;7.82;;;2.65;;
23680;SDS011;62915;50.832;4.462;2024-01-15T14:35:04;7.22;;;2.63;;
23680;SDS011;62915;50.832;4.462;2024-01-15T14:37:31;7.47;;;2.30;;
23680;SDS011;62915;50.832;4.462;2024-01-15T14:39:56;12.43;;;4.40;;
23680;SDS011;62915;50.832;4.462;2024-01-15T14:42:22;10.43;;;2.63;;
23680;SDS011;62915;50.832;4.462;2024-01-15T14:44:49;9.00;;;2.40;;